sensor_id;sensor_type;location;lat;lon;timestamp;P1;durP1;ratioP1;P2;durP2;ratioP2
56297;SDS011;42208;6.376;-10.782;2023-06-10T00:00:02;30.90;;;11.60;;
56297;SDS011;42208;6.376;-10.782;2023-06-10T00:02:37;26.52;;;10.65;;
56297;SDS011;42208;6.376;-10.782;2023-06-10T00:05:06;23.73;;;9.07;;
56297;SDS011;42208;6.376;-10.782;2023-06-10T00:07:36;28.38;;;7.90;;
56297;SDS011;42208;6.376;-10.782;2023-06-10T00:10:05;28.95;;;7.97;;
56297;SDS011;42208;6.376;-10.782;2023-06-10T00:12:34;22.70;;;6.93;;
56297;SDS011;42208;6.376;-10.782;2023-06-10T00:15:03;20.25;;;7.03;;
56297;SDS011;42208;6.376;-10.782;2023-06-10T00:17:33;21.45;;;6.47;;
56297;SDS011;42208;6.376;-10.782;2023-06-10T00:20:01;18.08;;;7.40;;
56297;SDS011;42208;6.376;-10.782;2023-06-10T00:22:30;19.67;;;5.75;;
56297;SDS011;42208;6.376;-10.782;2023-06-10T00:24:59;38.30;;;12.15;;
56297;SDS011;42208;6.376;-10.782;2023-06-10T00:27:27;20.10;;;7.50;;
56297;SDS011;42208;6.376;-10.782;2023-06-10T00:29:56;16.05;;;6.55;;
56297;SDS011;42208;6.376;-10.782;2023-06-10T00:32:24;16.58;;;5.93;;
56297;SDS011;42208;6.376;-10.782;2023-06-10T00:34:54;15.38;;;5.07;;
56297;SDS011;42208;6.376;-10.782;2023-06-10T00:37:23;14.02;;;4.90;;
56297;SDS011;42208;6.376;-10.782;2023-06-10T00:39:51;13.90;;;4.53;;
56297;SDS011;42208;6.376;-10.782;2023-06-10T00:42:20;16.08;;;5.30;;
56297;SDS011;42208;6.376;-10.782;2023-06-10T00:44:48;27.45;;;6.65;;
56297;SDS011;42208;6.376;-10.782;2023-06-10T00:47:22;44.42;;;13.27;;
56297;SDS011;42208;6.376;-10.782;2023-06-10T00:49:51;26.50;;;8.25;;
56297;SDS011;42208;6.376;-10.782;2023-06-10T00:52:19;13.77;;;4.75;;
56297;SDS011;42208;6.376;-10.782;2023-06-10T00:54:51;19.83;;;5.15;;
56297;SDS011;42208;6.376;-10.782;2023-06-10T00:57:19;18.75;;;4.65;;
56297;SDS011;42208;6.376;-10.782;2023-06-10T00:59:49;16.40;;;4.35;;
56297;SDS011;42208;6.376;-10.782;2023-06-10T01:02:18;13.88;;;4.07;;
56297;SDS011;42208;6.376;-10.782;2023-06-10T01:04:47;20.35;;;4.82;;
56297;SDS011;42208;6.376;-10.782;2023-06-10T01:10:03;34.25;;;9.18;;
56297;SDS011;42208;6.376;-10.782;2023-06-10T01:12:59;16.48;;;4.22;;
56297;SDS011;42208;6.376;-10.782;2023-06-10T01:15:30;18.98;;;5.15;;
56297;SDS011;42208;6.376;-10.782;2023-06-10T01:18:03;18.33;;;5.35;;
56297;SDS011;42208;6.376;-10.782;2023-06-10T01:20:34;30.13;;;8.65;;
56297;SDS011;42208;6.376;-10.782;2023-06-10T01:23:04;42.72;;;14.23;;
56297;SDS011;42208;6.376;-10.782;2023-06-10T01:25:33;34.97;;;10.65;;
56297;SDS011;42208;6.376;-10.782;2023-06-10T01:33:36;24.52;;;8.35;;
56297;SDS011;42208;6.376;-10.782;2023-06-10T01:36:09;16.52;;;5.63;;
56297;SDS011;42208;6.376;-10.782;2023-06-10T01:38:47;24.67;;;6.82;;
56297;SDS011;42208;6.376;-10.782;2023-06-10T01:41:17;23.58;;;8.85;;
56297;SDS011;42208;6.376;-10.782;2023-06-10T01:43:47;15.68;;;6.95;;
56297;SDS011;42208;6.376;-10.782;2023-06-10T01:46:16;22.05;;;9.35;;
56297;SDS011;42208;6.376;-10.782;2023-06-10T01:48:46;32.75;;;12.65;;
56297;SDS011;42208;6.376;-10.782;2023-06-10T01:51:15;13.60;;;5.72;;
56297;SDS011;42208;6.376;-10.782;2023-06-10T01:53:43;11.60;;;4.57;;
56297;SDS011;42208;6.376;-10.782;2023-06-10T01:56:13;17.67;;;7.57;;
56297;SDS011;42208;6.376;-10.782;2023-06-10T01:58:41;16.05;;;5.35;;
56297;SDS011;42208;6.376;-10.782;2023-06-10T02:01:10;23.67;;;8.80;;
56297;SDS011;42208;6.376;-10.782;2023-06-10T02:03:39;13.57;;;4.43;;
56297;SDS011;42208;6.376;-10.782;2023-06-10T02:06:08;18.27;;;6.57;;
56297;SDS011;42208;6.376;-10.782;2023-06-10T02:08:36;9.18;;;3.38;;
56297;SDS011;42208;6.376;-10.782;2023-06-10T02:11:05;10.07;;;3.88;;
56297;SDS011;42208;6.376;-10.782;2023-06-10T02:13:34;17.55;;;6.18;;
56297;SDS011;42208;6.376;-10.782;2023-06-10T02:16:02;19.50;;;6.95;;
56297;SDS011;42208;6.376;-10.782;2023-06-10T02:18:31;23.30;;;10.52;;
56297;SDS011;42208;6.376;-10.782;2023-06-10T02:21:00;29.50;;;12.27;;
56297;SDS011;42208;6.376;-10.782;2023-06-10T02:23:28;31.55;;;10.52;;
56297;SDS011;42208;6.376;-10.782;2023-06-10T02:25:57;18.30;;;7.43;;
56297;SDS011;42208;6.376;-10.782;2023-06-10T02:28:31;24.90;;;8.88;;
56297;SDS011;42208;6.376;-10.782;2023-06-10T02:31:00;30.02;;;13.77;;
56297;SDS011;42208;6.376;-10.782;2023-06-10T02:33:29;39.55;;;16.52;;
56297;SDS011;42208;6.376;-10.782;2023-06-10T02:35:58;36.03;;;15.57;;
56297;SDS011;42208;6.376;-10.782;2023-06-10T02:38:27;28.05;;;11.55;;
56297;SDS011;42208;6.376;-10.782;2023-06-10T02:40:57;35.78;;;13.80;;
56297;SDS011;42208;6.376;-10.782;2023-06-10T02:43:27;28.05;;;10.00;;
56297;SDS011;42208;6.376;-10.782;2023-06-10T02:45:56;19.90;;;7.43;;
56297;SDS011;42208;6.376;-10.782;2023-06-10T02:48:24;23.25;;;9.00;;
56297;SDS011;42208;6.376;-10.782;2023-06-10T02:50:55;32.88;;;13.05;;
56297;SDS011;42208;6.376;-10.782;2023-06-10T02:53:35;21.08;;;8.90;;
56297;SDS011;42208;6.376;-10.782;2023-06-10T02:56:08;22.48;;;8.32;;
56297;SDS011;42208;6.376;-10.782;2023-06-10T02:58:36;20.90;;;7.85;;
56297;SDS011;42208;6.376;-10.782;2023-06-10T03:01:06;25.65;;;9.45;;
56297;SDS011;42208;6.376;-10.782;2023-06-10T03:03:43;14.05;;;5.88;;
56297;SDS011;42208;6.376;-10.782;2023-06-10T03:06:13;20.52;;;8.57;;
56297;SDS011;42208;6.376;-10.782;2023-06-10T03:08:43;25.15;;;9.00;;
56297;SDS011;42208;6.376;-10.782;2023-06-10T03:11:15;25.50;;;6.03;;
56297;SDS011;42208;6.376;-10.782;2023-06-10T03:13:44;20.02;;;7.80;;
56297;SDS011;42208;6.376;-10.782;2023-06-10T03:16:16;18.52;;;8.02;;
56297;SDS011;42208;6.376;-10.782;2023-06-10T03:18:45;20.55;;;6.57;;
56297;SDS011;42208;6.376;-10.782;2023-06-10T03:21:14;19.50;;;8.20;;
56297;SDS011;42208;6.376;-10.782;2023-06-10T03:23:43;22.58;;;6.75;;
56297;SDS011;42208;6.376;-10.782;2023-06-10T03:26:11;16.48;;;4.35;;
56297;SDS011;42208;6.376;-10.782;2023-06-10T03:28:43;11.10;;;4.00;;
56297;SDS011;42208;6.376;-10.782;2023-06-10T03:31:11;17.77;;;5.10;;
56297;SDS011;42208;6.376;-10.782;2023-06-10T03:33:40;18.65;;;5.45;;
56297;SDS011;42208;6.376;-10.782;2023-06-10T03:36:09;28.75;;;11.88;;
56297;SDS011;42208;6.376;-10.782;2023-06-10T03:38:38;29.73;;;11.23;;
56297;SDS011;42208;6.376;-10.782;2023-06-10T03:41:07;36.80;;;23.73;;
56297;SDS011;42208;6.376;-10.782;2023-06-10T03:43:40;24.67;;;10.15;;
56297;SDS011;42208;6.376;-10.782;2023-06-10T03:46:08;22.35;;;7.97;;
56297;SDS011;42208;6.376;-10.782;2023-06-10T03:48:38;20.63;;;5.55;;
56297;SDS011;42208;6.376;-10.782;2023-06-10T03:51:07;15.05;;;5.00;;
56297;SDS011;42208;6.376;-10.782;2023-06-10T03:53:35;17.45;;;4.03;;
56297;SDS011;42208;6.376;-10.782;2023-06-10T03:56:04;17.73;;;4.75;;
56297;SDS011;42208;6.376;-10.782;2023-06-10T03:58:33;13.38;;;4.05;;
56297;SDS011;42208;6.376;-10.782;2023-06-10T04:01:03;21.00;;;4.40;;
56297;SDS011;42208;6.376;-10.782;2023-06-10T04:03:34;23.98;;;6.82;;
56297;SDS011;42208;6.376;-10.782;2023-06-10T04:06:03;18.20;;;5.22;;
56297;SDS011;42208;6.376;-10.782;2023-06-10T04:08:32;21.55;;;5.55;;
56297;SDS011;42208;6.376;-10.782;2023-06-10T04:11:00;25.65;;;7.35;;
56297;SDS011;42208;6.376;-10.782;2023-06-10T04:13:29;16.08;;;4.82;;
56297;SDS011;42208;6.376;-10.782;2023-06-10T04:15:58;11.77;;;4.35;;
56297;SDS011;42208;6.376;-10.782;2023-06-10T04:18:27;15.23;;;5.13;;
56297;SDS011;42208;6.376;-10.782;2023-06-10T04:21:00;12.55;;;4.38;;
56297;SDS011;42208;6.376;-10.782;2023-06-10T04:23:30;12.73;;;3.88;;
56297;SDS011;42208;6.376;-10.782;2023-06-10T04:25:59;14.30;;;3.70;;
56297;SDS011;42208;6.376;-10.782;2023-06-10T04:28:28;11.80;;;4.10;;
56297;SDS011;42208;6.376;-10.782;2023-06-10T04:30:57;18.65;;;4.85;;
56297;SDS011;42208;6.376;-10.782;2023-06-10T04:33:27;20.10;;;4.53;;
56297;SDS011;42208;6.376;-10.782;2023-06-10T04:35:56;19.05;;;4.97;;
56297;SDS011;42208;6.376;-10.782;2023-06-10T04:38:28;16.15;;;5.28;;
56297;SDS011;42208;6.376;-10.782;2023-06-10T04:40:58;16.40;;;5.00;;
56297;SDS011;42208;6.376;-10.782;2023-06-10T04:43:30;19.00;;;6.90;;
56297;SDS011;42208;6.376;-10.782;2023-06-10T04:46:00;15.77;;;5.15;;
56297;SDS011;42208;6.376;-10.782;2023-06-10T04:48:29;19.23;;;5.15;;
56297;SDS011;42208;6.376;-10.782;2023-06-10T04:50:58;14.20;;;4.00;;
56297;SDS011;42208;6.376;-10.782;2023-06-10T04:53:27;16.85;;;4.82;;
56297;SDS011;42208;6.376;-10.782;2023-06-10T04:55:56;16.27;;;5.05;;
56297;SDS011;42208;6.376;-10.782;2023-06-10T04:58:24;20.00;;;6.35;;
56297;SDS011;42208;6.376;-10.782;2023-06-10T05:00:53;18.38;;;6.10;;
56297;SDS011;42208;6.376;-10.782;2023-06-10T05:03:21;15.55;;;5.25;;
56297;SDS011;42208;6.376;-10.782;2023-06-10T05:05:50;23.35;;;5.20;;
56297;SDS011;42208;6.376;-10.782;2023-06-10T05:08:18;19.67;;;3.97;;
56297;SDS011;42208;6.376;-10.782;2023-06-10T05:10:47;18.92;;;3.95;;
56297;SDS011;42208;6.376;-10.782;2023-06-10T05:13:16;18.80;;;4.22;;
56297;SDS011;42208;6.376;-10.782;2023-06-10T05:15:45;14.90;;;4.40;;
56297;SDS011;42208;6.376;-10.782;2023-06-10T05:18:13;17.75;;;4.50;;
56297;SDS011;42208;6.376;-10.782;2023-06-10T05:20:42;20.77;;;6.45;;
56297;SDS011;42208;6.376;-10.782;2023-06-10T05:23:10;25.42;;;5.57;;
56297;SDS011;42208;6.376;-10.782;2023-06-10T05:25:39;20.50;;;5.72;;
56297;SDS011;42208;6.376;-10.782;2023-06-10T05:28:07;14.77;;;5.00;;
56297;SDS011;42208;6.376;-10.782;2023-06-10T05:30:38;22.88;;;6.22;;
56297;SDS011;42208;6.376;-10.782;2023-06-10T05:33:07;29.35;;;9.32;;
56297;SDS011;42208;6.376;-10.782;2023-06-10T05:35:35;22.10;;;8.65;;
56297;SDS011;42208;6.376;-10.782;2023-06-10T05:38:04;17.13;;;7.32;;
56297;SDS011;42208;6.376;-10.782;2023-06-10T05:40:33;18.60;;;7.10;;
56297;SDS011;42208;6.376;-10.782;2023-06-10T05:43:01;18.95;;;7.93;;
56297;SDS011;42208;6.376;-10.782;2023-06-10T05:45:30;17.80;;;6.40;;
56297;SDS011;42208;6.376;-10.782;2023-06-10T05:47:58;22.70;;;6.68;;
56297;SDS011;42208;6.376;-10.782;2023-06-10T05:50:27;19.33;;;6.95;;
56297;SDS011;42208;6.376;-10.782;2023-06-10T05:52:55;17.90;;;5.93;;
56297;SDS011;42208;6.376;-10.782;2023-06-10T05:55:23;21.58;;;7.20;;
56297;SDS011;42208;6.376;-10.782;2023-06-10T05:57:58;14.63;;;5.50;;
56297;SDS011;42208;6.376;-10.782;2023-06-10T06:00:27;20.88;;;7.85;;
56297;SDS011;42208;6.376;-10.782;2023-06-10T06:02:55;25.77;;;7.05;;
56297;SDS011;42208;6.376;-10.782;2023-06-10T06:05:24;16.90;;;6.72;;
56297;SDS011;42208;6.376;-10.782;2023-06-10T06:07:53;17.00;;;6.22;;
56297;SDS011;42208;6.376;-10.782;2023-06-10T06:10:21;20.70;;;6.35;;
56297;SDS011;42208;6.376;-10.782;2023-06-10T06:12:50;25.13;;;6.50;;
56297;SDS011;42208;6.376;-10.782;2023-06-10T06:15:18;20.60;;;7.22;;
56297;SDS011;42208;6.376;-10.782;2023-06-10T06:17:47;22.30;;;6.88;;
56297;SDS011;42208;6.376;-10.782;2023-06-10T06:20:15;14.68;;;6.18;;
56297;SDS011;42208;6.376;-10.782;2023-06-10T06:22:46;13.88;;;6.40;;
56297;SDS011;42208;6.376;-10.782;2023-06-10T06:25:14;17.10;;;5.55;;
56297;SDS011;42208;6.376;-10.782;2023-06-10T06:27:43;24.13;;;7.65;;
56297;SDS011;42208;6.376;-10.782;2023-06-10T06:30:11;16.27;;;6.95;;
56297;SDS011;42208;6.376;-10.782;2023-06-10T06:32:40;27.80;;;7.15;;
56297;SDS011;42208;6.376;-10.782;2023-06-10T06:35:09;17.30;;;6.55;;
56297;SDS011;42208;6.376;-10.782;2023-06-10T06:37:37;17.77;;;6.32;;
56297;SDS011;42208;6.376;-10.782;2023-06-10T06:40:16;20.67;;;6.75;;
56297;SDS011;42208;6.376;-10.782;2023-06-10T06:42:44;23.40;;;8.65;;
56297;SDS011;42208;6.376;-10.782;2023-06-10T06:45:22;20.25;;;6.90;;
56297;SDS011;42208;6.376;-10.782;2023-06-10T06:47:50;18.40;;;7.07;;
56297;SDS011;42208;6.376;-10.782;2023-06-10T06:50:19;20.63;;;7.20;;
56297;SDS011;42208;6.376;-10.782;2023-06-10T06:52:47;16.50;;;7.25;;
56297;SDS011;42208;6.376;-10.782;2023-06-10T06:55:15;18.65;;;7.00;;
56297;SDS011;42208;6.376;-10.782;2023-06-10T06:57:44;26.05;;;8.55;;
56297;SDS011;42208;6.376;-10.782;2023-06-10T07:00:13;22.85;;;8.68;;
56297;SDS011;42208;6.376;-10.782;2023-06-10T07:02:41;34.10;;;10.48;;
56297;SDS011;42208;6.376;-10.782;2023-06-10T07:05:10;24.42;;;10.23;;
56297;SDS011;42208;6.376;-10.782;2023-06-10T07:07:39;32.28;;;12.65;;
56297;SDS011;42208;6.376;-10.782;2023-06-10T07:10:07;33.53;;;14.65;;
56297;SDS011;42208;6.376;-10.782;2023-06-10T07:12:36;30.55;;;13.45;;
56297;SDS011;42208;6.376;-10.782;2023-06-10T07:15:04;32.88;;;13.32;;
56297;SDS011;42208;6.376;-10.782;2023-06-10T07:17:34;23.83;;;10.73;;
56297;SDS011;42208;6.376;-10.782;2023-06-10T07:20:02;24.20;;;9.32;;
56297;SDS011;42208;6.376;-10.782;2023-06-10T07:22:31;27.83;;;7.90;;
56297;SDS011;42208;6.376;-10.782;2023-06-10T07:25:00;26.45;;;8.75;;
56297;SDS011;42208;6.376;-10.782;2023-06-10T07:27:28;23.48;;;7.63;;
56297;SDS011;42208;6.376;-10.782;2023-06-10T07:29:57;22.52;;;8.07;;
56297;SDS011;42208;6.376;-10.782;2023-06-10T07:32:25;23.25;;;7.85;;
56297;SDS011;42208;6.376;-10.782;2023-06-10T07:34:54;23.23;;;8.27;;
56297;SDS011;42208;6.376;-10.782;2023-06-10T07:37:22;24.83;;;8.90;;
56297;SDS011;42208;6.376;-10.782;2023-06-10T07:39:51;24.48;;;7.88;;
56297;SDS011;42208;6.376;-10.782;2023-06-10T07:42:19;24.77;;;8.20;;
56297;SDS011;42208;6.376;-10.782;2023-06-10T07:44:48;22.85;;;9.38;;
56297;SDS011;42208;6.376;-10.782;2023-06-10T07:47:16;26.13;;;13.00;;
56297;SDS011;42208;6.376;-10.782;2023-06-10T07:49:45;32.78;;;14.48;;
56297;SDS011;42208;6.376;-10.782;2023-06-10T07:52:14;32.28;;;13.23;;
56297;SDS011;42208;6.376;-10.782;2023-06-10T07:54:42;35.15;;;15.20;;
56297;SDS011;42208;6.376;-10.782;2023-06-10T07:57:11;39.05;;;14.77;;
56297;SDS011;42208;6.376;-10.782;2023-06-10T07:59:39;26.52;;;12.00;;
56297;SDS011;42208;6.376;-10.782;2023-06-10T08:02:08;34.65;;;13.27;;
56297;SDS011;42208;6.376;-10.782;2023-06-10T08:04:36;30.95;;;12.35;;
56297;SDS011;42208;6.376;-10.782;2023-06-10T08:07:05;30.70;;;12.52;;
56297;SDS011;42208;6.376;-10.782;2023-06-10T08:09:33;34.50;;;11.45;;
56297;SDS011;42208;6.376;-10.782;2023-06-10T08:12:02;25.65;;;8.25;;
56297;SDS011;42208;6.376;-10.782;2023-06-10T08:14:31;22.27;;;7.28;;
56297;SDS011;42208;6.376;-10.782;2023-06-10T08:17:00;22.50;;;6.13;;
56297;SDS011;42208;6.376;-10.782;2023-06-10T08:19:29;25.20;;;7.18;;
56297;SDS011;42208;6.376;-10.782;2023-06-10T08:21:57;29.30;;;8.75;;
56297;SDS011;42208;6.376;-10.782;2023-06-10T08:24:26;22.00;;;5.47;;
56297;SDS011;42208;6.376;-10.782;2023-06-10T08:26:55;21.20;;;5.35;;
56297;SDS011;42208;6.376;-10.782;2023-06-10T08:29:23;16.75;;;5.82;;
56297;SDS011;42208;6.376;-10.782;2023-06-10T08:31:52;22.73;;;4.43;;
56297;SDS011;42208;6.376;-10.782;2023-06-10T08:34:21;24.85;;;4.97;;
56297;SDS011;42208;6.376;-10.782;2023-06-10T08:36:50;32.45;;;5.35;;
56297;SDS011;42208;6.376;-10.782;2023-06-10T08:39:19;33.70;;;11.77;;
56297;SDS011;42208;6.376;-10.782;2023-06-10T08:41:51;61.80;;;33.83;;
56297;SDS011;42208;6.376;-10.782;2023-06-10T08:44:35;45.08;;;21.02;;
56297;SDS011;42208;6.376;-10.782;2023-06-10T08:47:07;30.77;;;8.93;;
56297;SDS011;42208;6.376;-10.782;2023-06-10T08:49:45;37.00;;;10.88;;
56297;SDS011;42208;6.376;-10.782;2023-06-10T08:52:15;36.72;;;11.43;;
56297;SDS011;42208;6.376;-10.782;2023-06-10T08:54:52;37.13;;;12.70;;
56297;SDS011;42208;6.376;-10.782;2023-06-10T08:57:24;37.15;;;15.25;;
56297;SDS011;42208;6.376;-10.782;2023-06-10T08:59:55;39.67;;;13.73;;
56297;SDS011;42208;6.376;-10.782;2023-06-10T09:02:28;30.08;;;10.23;;
56297;SDS011;42208;6.376;-10.782;2023-06-10T09:04:57;21.92;;;8.15;;
56297;SDS011;42208;6.376;-10.782;2023-06-10T09:07:29;36.78;;;12.52;;
56297;SDS011;42208;6.376;-10.782;2023-06-10T09:09:59;29.80;;;9.90;;
56297;SDS011;42208;6.376;-10.782;2023-06-10T09:12:29;35.10;;;12.60;;
56297;SDS011;42208;6.376;-10.782;2023-06-10T09:14:58;60.00;;;25.50;;
56297;SDS011;42208;6.376;-10.782;2023-06-10T09:17:29;25.38;;;10.00;;
56297;SDS011;42208;6.376;-10.782;2023-06-10T09:19:59;30.55;;;11.73;;
56297;SDS011;42208;6.376;-10.782;2023-06-10T09:22:28;21.17;;;7.68;;
56297;SDS011;42208;6.376;-10.782;2023-06-10T09:25:04;27.98;;;7.22;;
56297;SDS011;42208;6.376;-10.782;2023-06-10T09:30:26;21.83;;;5.93;;
56297;SDS011;42208;6.376;-10.782;2023-06-10T09:32:57;22.00;;;5.30;;
56297;SDS011;42208;6.376;-10.782;2023-06-10T09:35:28;26.27;;;9.02;;
56297;SDS011;42208;6.376;-10.782;2023-06-10T09:37:59;32.50;;;7.32;;
56297;SDS011;42208;6.376;-10.782;2023-06-10T09:40:29;27.45;;;5.97;;
56297;SDS011;42208;6.376;-10.782;2023-06-10T09:42:59;20.77;;;5.22;;
56297;SDS011;42208;6.376;-10.782;2023-06-10T09:45:31;23.58;;;4.82;;
56297;SDS011;42208;6.376;-10.782;2023-06-10T09:48:00;26.98;;;4.70;;
56297;SDS011;42208;6.376;-10.782;2023-06-10T09:50:32;18.50;;;4.50;;
56297;SDS011;42208;6.376;-10.782;2023-06-10T09:53:01;18.75;;;3.55;;
56297;SDS011;42208;6.376;-10.782;2023-06-10T09:55:32;14.18;;;3.83;;
56297;SDS011;42208;6.376;-10.782;2023-06-10T09:58:01;16.60;;;4.28;;
56297;SDS011;42208;6.376;-10.782;2023-06-10T10:00:34;21.35;;;5.65;;
56297;SDS011;42208;6.376;-10.782;2023-06-10T10:03:05;20.10;;;8.18;;
56297;SDS011;42208;6.376;-10.782;2023-06-10T10:05:34;19.65;;;5.68;;
56297;SDS011;42208;6.376;-10.782;2023-06-10T10:08:03;16.67;;;4.65;;
56297;SDS011;42208;6.376;-10.782;2023-06-10T10:10:31;22.23;;;9.40;;
56297;SDS011;42208;6.376;-10.782;2023-06-10T10:13:00;31.38;;;7.03;;
56297;SDS011;42208;6.376;-10.782;2023-06-10T10:15:31;16.48;;;7.10;;
56297;SDS011;42208;6.376;-10.782;2023-06-10T10:18:05;18.27;;;4.22;;
56297;SDS011;42208;6.376;-10.782;2023-06-10T10:20:40;16.85;;;4.13;;
56297;SDS011;42208;6.376;-10.782;2023-06-10T10:23:19;21.63;;;5.10;;
56297;SDS011;42208;6.376;-10.782;2023-06-10T10:25:54;19.95;;;4.57;;
56297;SDS011;42208;6.376;-10.782;2023-06-10T10:28:25;13.80;;;3.92;;
56297;SDS011;42208;6.376;-10.782;2023-06-10T10:31:02;13.43;;;3.58;;
56297;SDS011;42208;6.376;-10.782;2023-06-10T10:36:26;9.52;;;2.70;;
56297;SDS011;42208;6.376;-10.782;2023-06-10T10:38:55;9.90;;;3.17;;
56297;SDS011;42208;6.376;-10.782;2023-06-10T10:41:25;21.63;;;5.03;;
56297;SDS011;42208;6.376;-10.782;2023-06-10T10:43:55;17.92;;;3.40;;
56297;SDS011;42208;6.376;-10.782;2023-06-10T10:46:24;13.50;;;3.72;;
56297;SDS011;42208;6.376;-10.782;2023-06-10T10:48:53;16.48;;;3.50;;
56297;SDS011;42208;6.376;-10.782;2023-06-10T10:51:24;25.77;;;4.53;;
56297;SDS011;42208;6.376;-10.782;2023-06-10T10:56:40;14.48;;;3.13;;
56297;SDS011;42208;6.376;-10.782;2023-06-10T11:02:44;18.63;;;4.90;;
56297;SDS011;42208;6.376;-10.782;2023-06-10T11:05:15;15.77;;;2.70;;
56297;SDS011;42208;6.376;-10.782;2023-06-10T11:07:54;9.18;;;3.00;;
56297;SDS011;42208;6.376;-10.782;2023-06-10T11:10:30;20.35;;;3.55;;
56297;SDS011;42208;6.376;-10.782;2023-06-10T11:13:10;13.18;;;3.00;;
56297;SDS011;42208;6.376;-10.782;2023-06-10T11:15:45;16.80;;;3.67;;
56297;SDS011;42208;6.376;-10.782;2023-06-10T11:26:14;14.38;;;4.25;;
56297;SDS011;42208;6.376;-10.782;2023-06-10T11:31:26;19.10;;;3.97;;
56297;SDS011;42208;6.376;-10.782;2023-06-10T11:33:57;17.25;;;3.65;;
56297;SDS011;42208;6.376;-10.782;2023-06-10T11:36:27;13.60;;;4.35;;
56297;SDS011;42208;6.376;-10.782;2023-06-10T11:39:00;21.65;;;4.20;;
56297;SDS011;42208;6.376;-10.782;2023-06-10T11:41:33;18.33;;;3.63;;
56297;SDS011;42208;6.376;-10.782;2023-06-10T11:44:09;17.05;;;4.18;;
56297;SDS011;42208;6.376;-10.782;2023-06-10T11:46:44;21.95;;;4.60;;
56297;SDS011;42208;6.376;-10.782;2023-06-10T11:49:15;27.60;;;3.88;;
56297;SDS011;42208;6.376;-10.782;2023-06-10T11:51:43;20.77;;;4.63;;
56297;SDS011;42208;6.376;-10.782;2023-06-10T11:54:12;12.93;;;3.00;;
56297;SDS011;42208;6.376;-10.782;2023-06-10T11:56:40;16.85;;;2.92;;
56297;SDS011;42208;6.376;-10.782;2023-06-10T11:59:09;36.40;;;4.63;;
56297;SDS011;42208;6.376;-10.782;2023-06-10T12:01:40;12.77;;;3.40;;
56297;SDS011;42208;6.376;-10.782;2023-06-10T12:04:14;18.63;;;3.97;;
56297;SDS011;42208;6.376;-10.782;2023-06-10T12:06:47;26.35;;;3.85;;
56297;SDS011;42208;6.376;-10.782;2023-06-10T12:11:58;30.83;;;4.68;;
56297;SDS011;42208;6.376;-10.782;2023-06-10T12:14:49;15.13;;;4.63;;
56297;SDS011;42208;6.376;-10.782;2023-06-10T12:17:23;15.23;;;6.00;;
56297;SDS011;42208;6.376;-10.782;2023-06-10T12:19:58;24.20;;;5.60;;
56297;SDS011;42208;6.376;-10.782;2023-06-10T12:22:35;23.30;;;6.65;;
56297;SDS011;42208;6.376;-10.782;2023-06-10T12:25:08;26.23;;;6.30;;
56297;SDS011;42208;6.376;-10.782;2023-06-10T12:27:39;17.13;;;4.35;;
56297;SDS011;42208;6.376;-10.782;2023-06-10T12:30:20;22.95;;;6.93;;
56297;SDS011;42208;6.376;-10.782;2023-06-10T12:32:50;16.80;;;5.22;;
56297;SDS011;42208;6.376;-10.782;2023-06-10T12:35:20;27.63;;;5.00;;
56297;SDS011;42208;6.376;-10.782;2023-06-10T12:37:54;17.63;;;3.77;;
56297;SDS011;42208;6.376;-10.782;2023-06-10T12:40:27;19.35;;;4.57;;
56297;SDS011;42208;6.376;-10.782;2023-06-10T12:42:57;32.95;;;7.03;;
56297;SDS011;42208;6.376;-10.782;2023-06-10T12:45:27;12.70;;;2.80;;
56297;SDS011;42208;6.376;-10.782;2023-06-10T12:50:40;41.97;;;7.30;;
56297;SDS011;42208;6.376;-10.782;2023-06-10T12:53:10;18.80;;;5.03;;
56297;SDS011;42208;6.376;-10.782;2023-06-10T12:55:39;34.75;;;6.22;;
56297;SDS011;42208;6.376;-10.782;2023-06-10T12:58:07;18.20;;;5.07;;
56297;SDS011;42208;6.376;-10.782;2023-06-10T13:00:36;25.27;;;7.78;;
56297;SDS011;42208;6.376;-10.782;2023-06-10T13:03:05;18.30;;;5.15;;
56297;SDS011;42208;6.376;-10.782;2023-06-10T13:05:37;18.95;;;5.35;;
56297;SDS011;42208;6.376;-10.782;2023-06-10T13:08:06;15.65;;;3.40;;
56297;SDS011;42208;6.376;-10.782;2023-06-10T13:10:36;25.45;;;4.07;;
56297;SDS011;42208;6.376;-10.782;2023-06-10T13:13:06;13.90;;;4.15;;
56297;SDS011;42208;6.376;-10.782;2023-06-10T13:15:35;16.48;;;3.17;;
56297;SDS011;42208;6.376;-10.782;2023-06-10T13:18:09;16.02;;;4.65;;
56297;SDS011;42208;6.376;-10.782;2023-06-10T13:20:38;11.10;;;3.17;;
56297;SDS011;42208;6.376;-10.782;2023-06-10T13:23:07;15.45;;;3.92;;
56297;SDS011;42208;6.376;-10.782;2023-06-10T13:25:35;29.20;;;4.45;;
56297;SDS011;42208;6.376;-10.782;2023-06-10T13:28:04;23.60;;;3.65;;
56297;SDS011;42208;6.376;-10.782;2023-06-10T13:30:32;21.40;;;4.55;;
56297;SDS011;42208;6.376;-10.782;2023-06-10T13:33:01;19.60;;;3.83;;
56297;SDS011;42208;6.376;-10.782;2023-06-10T13:35:29;18.98;;;4.13;;
56297;SDS011;42208;6.376;-10.782;2023-06-10T13:37:58;19.55;;;3.53;;
56297;SDS011;42208;6.376;-10.782;2023-06-10T13:40:26;13.43;;;3.15;;
56297;SDS011;42208;6.376;-10.782;2023-06-10T13:42:55;22.92;;;6.47;;
56297;SDS011;42208;6.376;-10.782;2023-06-10T13:45:24;17.88;;;4.03;;
56297;SDS011;42208;6.376;-10.782;2023-06-10T13:47:52;20.15;;;4.53;;
56297;SDS011;42208;6.376;-10.782;2023-06-10T13:50:21;29.00;;;7.72;;
56297;SDS011;42208;6.376;-10.782;2023-06-10T13:52:49;38.17;;;8.10;;
56297;SDS011;42208;6.376;-10.782;2023-06-10T13:55:18;24.58;;;5.28;;
56297;SDS011;42208;6.376;-10.782;2023-06-10T13:57:47;17.65;;;3.72;;
56297;SDS011;42208;6.376;-10.782;2023-06-10T14:00:15;19.85;;;6.68;;
56297;SDS011;42208;6.376;-10.782;2023-06-10T14:02:44;26.48;;;9.35;;
56297;SDS011;42208;6.376;-10.782;2023-06-10T14:05:13;13.98;;;3.78;;
56297;SDS011;42208;6.376;-10.782;2023-06-10T14:07:42;23.00;;;5.78;;
56297;SDS011;42208;6.376;-10.782;2023-06-10T14:10:11;43.35;;;5.22;;
56297;SDS011;42208;6.376;-10.782;2023-06-10T14:12:39;16.33;;;3.90;;
56297;SDS011;42208;6.376;-10.782;2023-06-10T14:15:08;27.10;;;4.65;;
56297;SDS011;42208;6.376;-10.782;2023-06-10T14:17:37;15.57;;;3.58;;
56297;SDS011;42208;6.376;-10.782;2023-06-10T14:20:06;15.93;;;5.38;;
56297;SDS011;42208;6.376;-10.782;2023-06-10T14:22:35;13.75;;;3.15;;
56297;SDS011;42208;6.376;-10.782;2023-06-10T14:25:03;13.00;;;2.97;;
56297;SDS011;42208;6.376;-10.782;2023-06-10T14:27:32;21.83;;;5.00;;
56297;SDS011;42208;6.376;-10.782;2023-06-10T14:30:02;19.48;;;5.10;;
56297;SDS011;42208;6.376;-10.782;2023-06-10T14:32:30;25.63;;;6.88;;
56297;SDS011;42208;6.376;-10.782;2023-06-10T14:34:59;23.85;;;4.60;;
56297;SDS011;42208;6.376;-10.782;2023-06-10T14:37:29;18.05;;;3.72;;
56297;SDS011;42208;6.376;-10.782;2023-06-10T14:39:57;20.80;;;4.55;;
56297;SDS011;42208;6.376;-10.782;2023-06-10T14:42:26;33.25;;;10.82;;
56297;SDS011;42208;6.376;-10.782;2023-06-10T14:44:54;36.65;;;8.02;;
56297;SDS011;42208;6.376;-10.782;2023-06-10T14:47:23;33.40;;;8.77;;
56297;SDS011;42208;6.376;-10.782;2023-06-10T14:49:52;33.95;;;7.78;;
56297;SDS011;42208;6.376;-10.782;2023-06-10T14:52:20;67.07;;;22.73;;
56297;SDS011;42208;6.376;-10.782;2023-06-10T14:54:49;28.25;;;5.05;;
56297;SDS011;42208;6.376;-10.782;2023-06-10T14:57:17;28.02;;;6.88;;
56297;SDS011;42208;6.376;-10.782;2023-06-10T14:59:46;33.45;;;5.05;;
56297;SDS011;42208;6.376;-10.782;2023-06-10T15:02:14;32.67;;;4.85;;
56297;SDS011;42208;6.376;-10.782;2023-06-10T15:04:43;30.73;;;5.68;;
56297;SDS011;42208;6.376;-10.782;2023-06-10T15:07:11;22.67;;;6.38;;
56297;SDS011;42208;6.376;-10.782;2023-06-10T15:09:40;30.63;;;8.88;;